sensor_id;sensor_type;location;lat;lon;timestamp;P1;durP1;ratioP1;P2;durP2;ratioP2
74849;SDS011;63397;47.480;19.238;2023-03-01T00:02:41;9.07;;;3.47;;
74849;SDS011;63397;47.480;19.238;2023-03-01T00:05:44;4.95;;;2.33;;
74849;SDS011;63397;47.480;19.238;2023-03-01T00:08:47;6.07;;;2.67;;
74849;SDS011;63397;47.480;19.238;2023-03-01T00:11:49;6.35;;;3.72;;
74849;SDS011;63397;47.480;19.238;2023-03-01T00:14:52;7.25;;;3.53;;
74849;SDS011;63397;47.480;19.238;2023-03-01T00:17:54;5.45;;;3.38;;
74849;SDS011;63397;47.480;19.238;2023-03-01T00:20:56;8.05;;;3.75;;
74849;SDS011;63397;47.480;19.238;2023-03-01T00:23:58;5.73;;;2.77;;
74849;SDS011;63397;47.480;19.238;2023-03-01T00:27:00;6.45;;;3.35;;
74849;SDS011;63397;47.480;19.238;2023-03-01T00:30:02;7.15;;;2.42;;
74849;SDS011;63397;47.480;19.238;2023-03-01T00:33:05;6.82;;;2.55;;
74849;SDS011;63397;47.480;19.238;2023-03-01T00:36:07;5.30;;;2.50;;
74849;SDS011;63397;47.480;19.238;2023-03-01T00:39:11;7.10;;;3.77;;
74849;SDS011;63397;47.480;19.238;2023-03-01T00:42:13;7.68;;;3.20;;
74849;SDS011;63397;47.480;19.238;2023-03-01T00:45:16;7.93;;;3.17;;
74849;SDS011;63397;47.480;19.238;2023-03-01T00:48:18;7.00;;;2.78;;
74849;SDS011;63397;47.480;19.238;2023-03-01T00:51:22;11.13;;;2.72;;
74849;SDS011;63397;47.480;19.238;2023-03-01T00:54:25;6.93;;;2.90;;
74849;SDS011;63397;47.480;19.238;2023-03-01T00:57:27;9.00;;;2.85;;
74849;SDS011;63397;47.480;19.238;2023-03-01T01:00:29;6.00;;;2.75;;
74849;SDS011;63397;47.480;19.238;2023-03-01T01:03:32;5.53;;;1.98;;
74849;SDS011;63397;47.480;19.238;2023-03-01T01:09:44;6.50;;;1.80;;
74849;SDS011;63397;47.480;19.238;2023-03-01T01:12:46;7.63;;;3.10;;
74849;SDS011;63397;47.480;19.238;2023-03-01T01:15:48;4.97;;;2.22;;
74849;SDS011;63397;47.480;19.238;2023-03-01T01:18:51;3.67;;;2.05;;
74849;SDS011;63397;47.480;19.238;2023-03-01T01:21:53;6.25;;;1.90;;
74849;SDS011;63397;47.480;19.238;2023-03-01T01:24:55;4.43;;;1.80;;
74849;SDS011;63397;47.480;19.238;2023-03-01T01:27:57;2.30;;;1.10;;
74849;SDS011;63397;47.480;19.238;2023-03-01T01:31:00;7.78;;;2.50;;
74849;SDS011;63397;47.480;19.238;2023-03-01T01:34:03;4.75;;;2.10;;
74849;SDS011;63397;47.480;19.238;2023-03-01T01:37:05;3.47;;;2.15;;
74849;SDS011;63397;47.480;19.238;2023-03-01T01:40:09;3.07;;;1.63;;
74849;SDS011;63397;47.480;19.238;2023-03-01T01:43:16;6.05;;;2.05;;
74849;SDS011;63397;47.480;19.238;2023-03-01T01:46:30;5.38;;;2.17;;
74849;SDS011;63397;47.480;19.238;2023-03-01T01:49:43;3.67;;;2.22;;
74849;SDS011;63397;47.480;19.238;2023-03-01T01:52:48;4.35;;;2.10;;
74849;SDS011;63397;47.480;19.238;2023-03-01T01:55:53;4.03;;;1.93;;
74849;SDS011;63397;47.480;19.238;2023-03-01T01:58:56;3.63;;;1.88;;
74849;SDS011;63397;47.480;19.238;2023-03-01T02:01:59;6.97;;;2.22;;
74849;SDS011;63397;47.480;19.238;2023-03-01T02:05:06;5.25;;;2.05;;
74849;SDS011;63397;47.480;19.238;2023-03-01T02:08:12;5.82;;;2.50;;
74849;SDS011;63397;47.480;19.238;2023-03-01T02:11:15;6.07;;;2.00;;
74849;SDS011;63397;47.480;19.238;2023-03-01T02:14:19;3.00;;;1.58;;
74849;SDS011;63397;47.480;19.238;2023-03-01T02:17:21;6.25;;;2.58;;
74849;SDS011;63397;47.480;19.238;2023-03-01T02:23:27;3.25;;;1.63;;
74849;SDS011;63397;47.480;19.238;2023-03-01T02:29:39;5.05;;;1.92;;
74849;SDS011;63397;47.480;19.238;2023-03-01T02:32:42;3.72;;;2.22;;
74849;SDS011;63397;47.480;19.238;2023-03-01T02:35:44;3.03;;;1.52;;
74849;SDS011;63397;47.480;19.238;2023-03-01T02:38:47;6.00;;;2.17;;
74849;SDS011;63397;47.480;19.238;2023-03-01T02:41:51;6.73;;;1.90;;
74849;SDS011;63397;47.480;19.238;2023-03-01T02:44:54;3.28;;;1.85;;
74849;SDS011;63397;47.480;19.238;2023-03-01T02:47:56;4.38;;;2.17;;
74849;SDS011;63397;47.480;19.238;2023-03-01T02:51:06;2.50;;;1.17;;
74849;SDS011;63397;47.480;19.238;2023-03-01T02:54:28;4.25;;;2.15;;
74849;SDS011;63397;47.480;19.238;2023-03-01T02:57:31;3.33;;;1.90;;
74849;SDS011;63397;47.480;19.238;2023-03-01T03:00:38;1.63;;;1.00;;
74849;SDS011;63397;47.480;19.238;2023-03-01T03:03:42;4.65;;;2.17;;
74849;SDS011;63397;47.480;19.238;2023-03-01T03:06:45;2.63;;;1.35;;
74849;SDS011;63397;47.480;19.238;2023-03-01T03:09:47;3.75;;;1.90;;
74849;SDS011;63397;47.480;19.238;2023-03-01T03:12:50;4.93;;;1.87;;
74849;SDS011;63397;47.480;19.238;2023-03-01T03:15:56;3.78;;;1.17;;
74849;SDS011;63397;47.480;19.238;2023-03-01T03:18:58;4.00;;;2.03;;
74849;SDS011;63397;47.480;19.238;2023-03-01T03:22:06;2.83;;;1.33;;
74849;SDS011;63397;47.480;19.238;2023-03-01T03:25:10;8.10;;;1.85;;
74849;SDS011;63397;47.480;19.238;2023-03-01T03:28:13;5.23;;;1.70;;
74849;SDS011;63397;47.480;19.238;2023-03-01T03:31:15;2.85;;;1.40;;
74849;SDS011;63397;47.480;19.238;2023-03-01T03:34:18;2.85;;;1.27;;
74849;SDS011;63397;47.480;19.238;2023-03-01T03:37:20;4.03;;;1.67;;
74849;SDS011;63397;47.480;19.238;2023-03-01T03:41:03;5.05;;;1.90;;
74849;SDS011;63397;47.480;19.238;2023-03-01T03:44:06;3.57;;;1.73;;
74849;SDS011;63397;47.480;19.238;2023-03-01T03:47:08;3.53;;;2.53;;
74849;SDS011;63397;47.480;19.238;2023-03-01T03:50:11;7.50;;;1.67;;
74849;SDS011;63397;47.480;19.238;2023-03-01T03:53:13;4.85;;;1.40;;
74849;SDS011;63397;47.480;19.238;2023-03-01T03:56:15;4.57;;;1.77;;
74849;SDS011;63397;47.480;19.238;2023-03-01T03:59:18;3.93;;;1.03;;
74849;SDS011;63397;47.480;19.238;2023-03-01T04:02:20;3.60;;;1.35;;
74849;SDS011;63397;47.480;19.238;2023-03-01T04:05:24;3.65;;;1.88;;
74849;SDS011;63397;47.480;19.238;2023-03-01T04:08:26;6.18;;;1.25;;
74849;SDS011;63397;47.480;19.238;2023-03-01T04:11:29;2.42;;;1.08;;
74849;SDS011;63397;47.480;19.238;2023-03-01T04:14:31;2.90;;;2.23;;
74849;SDS011;63397;47.480;19.238;2023-03-01T04:17:34;3.42;;;1.45;;
74849;SDS011;63397;47.480;19.238;2023-03-01T04:20:36;3.42;;;1.20;;
74849;SDS011;63397;47.480;19.238;2023-03-01T04:23:38;8.15;;;1.60;;
74849;SDS011;63397;47.480;19.238;2023-03-01T04:26:42;5.50;;;2.38;;
74849;SDS011;63397;47.480;19.238;2023-03-01T04:29:45;5.90;;;2.33;;
74849;SDS011;63397;47.480;19.238;2023-03-01T04:32:47;3.90;;;1.50;;
74849;SDS011;63397;47.480;19.238;2023-03-01T04:35:49;2.92;;;1.75;;
74849;SDS011;63397;47.480;19.238;2023-03-01T04:38:52;2.75;;;1.13;;
74849;SDS011;63397;47.480;19.238;2023-03-01T04:41:54;3.13;;;1.45;;
74849;SDS011;63397;47.480;19.238;2023-03-01T04:44:56;8.17;;;2.60;;
74849;SDS011;63397;47.480;19.238;2023-03-01T04:47:58;4.13;;;1.77;;
74849;SDS011;63397;47.480;19.238;2023-03-01T04:51:01;2.60;;;1.63;;
74849;SDS011;63397;47.480;19.238;2023-03-01T04:54:03;6.03;;;1.92;;
74849;SDS011;63397;47.480;19.238;2023-03-01T04:57:07;6.45;;;2.25;;
74849;SDS011;63397;47.480;19.238;2023-03-01T05:00:13;2.43;;;1.10;;
74849;SDS011;63397;47.480;19.238;2023-03-01T05:03:24;4.13;;;2.00;;
74849;SDS011;63397;47.480;19.238;2023-03-01T05:06:26;5.00;;;2.17;;
74849;SDS011;63397;47.480;19.238;2023-03-01T05:09:28;4.68;;;1.48;;
74849;SDS011;63397;47.480;19.238;2023-03-01T05:12:30;3.80;;;1.40;;
74849;SDS011;63397;47.480;19.238;2023-03-01T05:15:32;3.80;;;2.13;;
74849;SDS011;63397;47.480;19.238;2023-03-01T05:18:35;5.82;;;1.92;;
74849;SDS011;63397;47.480;19.238;2023-03-01T05:21:37;4.75;;;2.22;;
74849;SDS011;63397;47.480;19.238;2023-03-01T05:25:01;3.90;;;1.50;;
74849;SDS011;63397;47.480;19.238;2023-03-01T05:28:03;2.15;;;1.40;;
74849;SDS011;63397;47.480;19.238;2023-03-01T05:31:06;4.93;;;2.63;;
74849;SDS011;63397;47.480;19.238;2023-03-01T05:34:11;4.30;;;2.22;;
74849;SDS011;63397;47.480;19.238;2023-03-01T05:37:14;4.45;;;2.17;;
74849;SDS011;63397;47.480;19.238;2023-03-01T05:40:17;5.93;;;2.97;;
74849;SDS011;63397;47.480;19.238;2023-03-01T05:43:20;3.97;;;1.92;;
74849;SDS011;63397;47.480;19.238;2023-03-01T05:46:22;6.53;;;4.07;;
74849;SDS011;63397;47.480;19.238;2023-03-01T05:49:26;5.97;;;2.80;;
74849;SDS011;63397;47.480;19.238;2023-03-01T05:52:28;7.15;;;2.85;;
74849;SDS011;63397;47.480;19.238;2023-03-01T05:55:31;7.25;;;2.88;;
74849;SDS011;63397;47.480;19.238;2023-03-01T05:58:33;11.20;;;3.80;;
74849;SDS011;63397;47.480;19.238;2023-03-01T06:01:36;5.80;;;3.13;;
74849;SDS011;63397;47.480;19.238;2023-03-01T06:04:38;4.28;;;2.05;;
74849;SDS011;63397;47.480;19.238;2023-03-01T06:07:41;5.05;;;2.70;;
74849;SDS011;63397;47.480;19.238;2023-03-01T06:10:43;3.92;;;2.28;;
74849;SDS011;63397;47.480;19.238;2023-03-01T06:13:45;2.85;;;1.67;;
74849;SDS011;63397;47.480;19.238;2023-03-01T06:16:48;4.20;;;2.40;;
74849;SDS011;63397;47.480;19.238;2023-03-01T06:19:50;7.32;;;2.40;;
74849;SDS011;63397;47.480;19.238;2023-03-01T06:22:52;9.88;;;2.25;;
74849;SDS011;63397;47.480;19.238;2023-03-01T06:25:54;5.22;;;1.77;;
74849;SDS011;63397;47.480;19.238;2023-03-01T06:28:57;5.00;;;1.80;;
74849;SDS011;63397;47.480;19.238;2023-03-01T06:31:59;3.20;;;1.63;;
74849;SDS011;63397;47.480;19.238;2023-03-01T06:35:02;4.40;;;2.10;;
74849;SDS011;63397;47.480;19.238;2023-03-01T06:38:05;3.75;;;1.83;;
74849;SDS011;63397;47.480;19.238;2023-03-01T06:41:07;2.33;;;1.30;;
74849;SDS011;63397;47.480;19.238;2023-03-01T06:44:09;5.97;;;2.35;;
74849;SDS011;63397;47.480;19.238;2023-03-01T06:47:12;2.63;;;1.63;;
74849;SDS011;63397;47.480;19.238;2023-03-01T06:50:17;4.78;;;2.22;;
74849;SDS011;63397;47.480;19.238;2023-03-01T06:53:22;3.28;;;1.88;;
74849;SDS011;63397;47.480;19.238;2023-03-01T06:56:27;3.83;;;2.28;;
74849;SDS011;63397;47.480;19.238;2023-03-01T06:59:32;5.50;;;1.95;;
74849;SDS011;63397;47.480;19.238;2023-03-01T07:02:39;3.77;;;1.73;;
74849;SDS011;63397;47.480;19.238;2023-03-01T07:05:43;4.90;;;2.00;;
74849;SDS011;63397;47.480;19.238;2023-03-01T07:08:46;5.28;;;1.80;;
74849;SDS011;63397;47.480;19.238;2023-03-01T07:11:50;6.25;;;1.83;;
74849;SDS011;63397;47.480;19.238;2023-03-01T07:14:57;4.20;;;2.17;;
74849;SDS011;63397;47.480;19.238;2023-03-01T07:18:01;4.83;;;1.73;;
74849;SDS011;63397;47.480;19.238;2023-03-01T07:21:07;3.75;;;1.73;;
74849;SDS011;63397;47.480;19.238;2023-03-01T07:24:10;3.95;;;1.83;;
74849;SDS011;63397;47.480;19.238;2023-03-01T07:27:13;3.92;;;2.00;;
74849;SDS011;63397;47.480;19.238;2023-03-01T07:30:15;5.80;;;1.75;;
74849;SDS011;63397;47.480;19.238;2023-03-01T07:33:17;5.73;;;2.20;;
74849;SDS011;63397;47.480;19.238;2023-03-01T07:36:22;4.93;;;1.75;;
74849;SDS011;63397;47.480;19.238;2023-03-01T07:39:24;5.40;;;2.10;;
74849;SDS011;63397;47.480;19.238;2023-03-01T07:42:26;6.35;;;2.55;;
74849;SDS011;63397;47.480;19.238;2023-03-01T07:45:29;3.92;;;1.70;;
74849;SDS011;63397;47.480;19.238;2023-03-01T07:48:32;4.83;;;1.77;;
74849;SDS011;63397;47.480;19.238;2023-03-01T07:51:34;3.97;;;1.73;;
74849;SDS011;63397;47.480;19.238;2023-03-01T07:54:37;3.05;;;1.60;;
74849;SDS011;63397;47.480;19.238;2023-03-01T07:57:39;5.60;;;1.88;;
74849;SDS011;63397;47.480;19.238;2023-03-01T08:00:42;4.38;;;2.08;;
74849;SDS011;63397;47.480;19.238;2023-03-01T08:03:44;3.17;;;1.73;;
74849;SDS011;63397;47.480;19.238;2023-03-01T08:06:47;5.32;;;2.30;;
74849;SDS011;63397;47.480;19.238;2023-03-01T08:09:49;4.75;;;1.90;;
74849;SDS011;63397;47.480;19.238;2023-03-01T08:12:52;5.40;;;2.05;;
74849;SDS011;63397;47.480;19.238;2023-03-01T08:15:59;7.30;;;2.33;;
74849;SDS011;63397;47.480;19.238;2023-03-01T08:19:06;6.33;;;2.20;;
74849;SDS011;63397;47.480;19.238;2023-03-01T08:22:08;5.32;;;2.28;;
74849;SDS011;63397;47.480;19.238;2023-03-01T08:25:10;7.07;;;2.95;;
74849;SDS011;63397;47.480;19.238;2023-03-01T08:28:13;12.68;;;3.80;;
74849;SDS011;63397;47.480;19.238;2023-03-01T08:34:18;7.67;;;2.30;;
74849;SDS011;63397;47.480;19.238;2023-03-01T08:37:20;4.95;;;2.55;;
74849;SDS011;63397;47.480;19.238;2023-03-01T08:40:22;4.57;;;1.92;;
74849;SDS011;63397;47.480;19.238;2023-03-01T08:43:25;8.57;;;2.05;;
74849;SDS011;63397;47.480;19.238;2023-03-01T08:46:28;6.18;;;1.98;;
74849;SDS011;63397;47.480;19.238;2023-03-01T08:49:31;3.93;;;1.30;;
74849;SDS011;63397;47.480;19.238;2023-03-01T08:52:36;4.13;;;2.03;;
74849;SDS011;63397;47.480;19.238;2023-03-01T08:55:39;3.47;;;1.55;;
74849;SDS011;63397;47.480;19.238;2023-03-01T08:58:45;4.05;;;1.75;;
74849;SDS011;63397;47.480;19.238;2023-03-01T09:01:49;5.40;;;1.60;;
74849;SDS011;63397;47.480;19.238;2023-03-01T09:04:51;4.03;;;1.50;;
74849;SDS011;63397;47.480;19.238;2023-03-01T09:07:54;5.57;;;2.45;;
74849;SDS011;63397;47.480;19.238;2023-03-01T09:10:56;2.90;;;1.13;;
74849;SDS011;63397;47.480;19.238;2023-03-01T09:14:04;6.20;;;2.35;;
74849;SDS011;63397;47.480;19.238;2023-03-01T09:17:06;4.53;;;1.65;;
74849;SDS011;63397;47.480;19.238;2023-03-01T09:20:09;3.03;;;1.33;;
74849;SDS011;63397;47.480;19.238;2023-03-01T09:23:12;3.38;;;1.20;;
74849;SDS011;63397;47.480;19.238;2023-03-01T09:26:23;6.00;;;2.17;;
74849;SDS011;63397;47.480;19.238;2023-03-01T09:29:25;6.15;;;2.65;;
74849;SDS011;63397;47.480;19.238;2023-03-01T09:32:30;4.63;;;1.45;;
74849;SDS011;63397;47.480;19.238;2023-03-01T09:35:32;4.10;;;1.23;;
74849;SDS011;63397;47.480;19.238;2023-03-01T09:38:34;5.30;;;1.75;;
74849;SDS011;63397;47.480;19.238;2023-03-01T09:41:41;3.08;;;1.35;;
74849;SDS011;63397;47.480;19.238;2023-03-01T09:47:47;4.35;;;1.85;;
74849;SDS011;63397;47.480;19.238;2023-03-01T09:50:50;3.47;;;1.73;;
74849;SDS011;63397;47.480;19.238;2023-03-01T09:53:53;6.15;;;2.53;;
74849;SDS011;63397;47.480;19.238;2023-03-01T09:57:01;3.50;;;1.95;;
74849;SDS011;63397;47.480;19.238;2023-03-01T10:06:15;2.90;;;0.87;;
74849;SDS011;63397;47.480;19.238;2023-03-01T10:09:36;4.68;;;0.73;;
74849;SDS011;63397;47.480;19.238;2023-03-01T10:12:40;1.08;;;0.30;;
74849;SDS011;63397;47.480;19.238;2023-03-01T10:15:47;3.95;;;1.75;;
74849;SDS011;63397;47.480;19.238;2023-03-01T10:18:53;3.67;;;1.75;;
74849;SDS011;63397;47.480;19.238;2023-03-01T10:21:57;5.37;;;1.93;;
74849;SDS011;63397;47.480;19.238;2023-03-01T10:25:02;5.05;;;1.98;;
74849;SDS011;63397;47.480;19.238;2023-03-01T10:28:06;3.30;;;1.35;;
74849;SDS011;63397;47.480;19.238;2023-03-01T10:31:14;6.82;;;2.42;;
74849;SDS011;63397;47.480;19.238;2023-03-01T10:34:21;4.78;;;1.95;;
74849;SDS011;63397;47.480;19.238;2023-03-01T10:37:25;4.67;;;2.00;;
74849;SDS011;63397;47.480;19.238;2023-03-01T10:40:29;5.13;;;2.20;;
74849;SDS011;63397;47.480;19.238;2023-03-01T10:43:43;4.07;;;1.98;;
74849;SDS011;63397;47.480;19.238;2023-03-01T10:46:47;6.45;;;2.75;;
74849;SDS011;63397;47.480;19.238;2023-03-01T10:50:01;5.35;;;1.83;;
74849;SDS011;63397;47.480;19.238;2023-03-01T10:53:26;7.60;;;2.90;;
74849;SDS011;63397;47.480;19.238;2023-03-01T10:56:45;3.78;;;1.73;;
74849;SDS011;63397;47.480;19.238;2023-03-01T10:59:48;4.32;;;1.58;;
74849;SDS011;63397;47.480;19.238;2023-03-01T11:03:10;2.38;;;0.93;;
74849;SDS011;63397;47.480;19.238;2023-03-01T11:06:21;4.03;;;1.77;;
74849;SDS011;63397;47.480;19.238;2023-03-01T11:09:24;3.17;;;1.23;;
74849;SDS011;63397;47.480;19.238;2023-03-01T11:12:29;7.00;;;2.40;;
74849;SDS011;63397;47.480;19.238;2023-03-01T11:15:32;3.10;;;1.25;;
74849;SDS011;63397;47.480;19.238;2023-03-01T11:18:34;4.57;;;1.90;;
74849;SDS011;63397;47.480;19.238;2023-03-01T11:25:11;5.47;;;1.87;;
74849;SDS011;63397;47.480;19.238;2023-03-01T11:28:16;4.35;;;1.50;;
74849;SDS011;63397;47.480;19.238;2023-03-01T11:31:19;5.15;;;1.50;;
74849;SDS011;63397;47.480;19.238;2023-03-01T11:41:23;3.17;;;1.43;;
74849;SDS011;63397;47.480;19.238;2023-03-01T11:44:28;3.92;;;1.48;;
74849;SDS011;63397;47.480;19.238;2023-03-01T11:50:49;2.78;;;0.90;;
74849;SDS011;63397;47.480;19.238;2023-03-01T12:00:40;1.50;;;0.80;;
74849;SDS011;63397;47.480;19.238;2023-03-01T12:10:02;2.65;;;1.05;;
74849;SDS011;63397;47.480;19.238;2023-03-01T12:26:59;3.58;;;1.10;;
74849;SDS011;63397;47.480;19.238;2023-03-01T12:33:10;4.55;;;1.08;;
74849;SDS011;63397;47.480;19.238;2023-03-01T12:49:33;4.03;;;1.42;;
74849;SDS011;63397;47.480;19.238;2023-03-01T12:52:44;3.67;;;1.08;;
74849;SDS011;63397;47.480;19.238;2023-03-01T12:55:49;4.03;;;1.38;;
74849;SDS011;63397;47.480;19.238;2023-03-01T13:02:16;2.67;;;0.87;;
74849;SDS011;63397;47.480;19.238;2023-03-01T13:05:25;2.92;;;1.08;;
74849;SDS011;63397;47.480;19.238;2023-03-01T13:08:35;3.58;;;0.95;;
74849;SDS011;63397;47.480;19.238;2023-03-01T13:11:40;2.70;;;0.60;;
74849;SDS011;63397;47.480;19.238;2023-03-01T13:14:44;3.08;;;1.30;;
74849;SDS011;63397;47.480;19.238;2023-03-01T13:17:47;2.83;;;1.20;;
74849;SDS011;63397;47.480;19.238;2023-03-01T13:20:50;4.40;;;1.77;;
74849;SDS011;63397;47.480;19.238;2023-03-01T13:23:53;3.42;;;1.58;;
74849;SDS011;63397;47.480;19.238;2023-03-01T13:30:38;6.35;;;1.50;;
74849;SDS011;63397;47.480;19.238;2023-03-01T13:39:39;3.45;;;1.27;;
74849;SDS011;63397;47.480;19.238;2023-03-01T13:42:45;2.95;;;0.93;;
74849;SDS011;63397;47.480;19.238;2023-03-01T13:46:00;3.97;;;2.08;;
74849;SDS011;63397;47.480;19.238;2023-03-01T13:49:03;4.27;;;1.07;;
74849;SDS011;63397;47.480;19.238;2023-03-01T13:58:33;2.03;;;0.70;;
74849;SDS011;63397;47.480;19.238;2023-03-01T14:01:35;2.97;;;1.10;;
74849;SDS011;63397;47.480;19.238;2023-03-01T14:04:38;1.97;;;0.83;;
74849;SDS011;63397;47.480;19.238;2023-03-01T14:07:42;2.22;;;0.40;;
74849;SDS011;63397;47.480;19.238;2023-03-01T14:10:48;2.95;;;1.10;;
74849;SDS011;63397;47.480;19.238;2023-03-01T14:20:20;3.67;;;0.80;;
74849;SDS011;63397;47.480;19.238;2023-03-01T14:23:23;2.40;;;0.95;;
74849;SDS011;63397;47.480;19.238;2023-03-01T14:26:25;4.00;;;0.70;;
74849;SDS011;63397;47.480;19.238;2023-03-01T14:29:35;2.58;;;0.60;;
74849;SDS011;63397;47.480;19.238;2023-03-01T14:32:40;2.85;;;1.05;;
74849;SDS011;63397;47.480;19.238;2023-03-01T14:35:42;1.80;;;0.77;;
74849;SDS011;63397;47.480;19.238;2023-03-01T14:38:46;4.35;;;1.40;;
74849;SDS011;63397;47.480;19.238;2023-03-01T14:41:49;3.17;;;0.95;;
74849;SDS011;63397;47.480;19.238;2023-03-01T14:44:52;1.85;;;0.70;;
74849;SDS011;63397;47.480;19.238;2023-03-01T14:47:55;2.05;;;0.73;;
74849;SDS011;63397;47.480;19.238;2023-03-01T14:51:00;3.77;;;1.00;;
74849;SDS011;63397;47.480;19.238;2023-03-01T14:54:03;1.95;;;1.00;;
74849;SDS011;63397;47.480;19.238;2023-03-01T14:57:12;2.95;;;0.95;;
74849;SDS011;63397;47.480;19.238;2023-03-01T15:00:17;2.78;;;1.00;;
74849;SDS011;63397;47.480;19.238;2023-03-01T15:03:26;2.08;;;0.93;;
74849;SDS011;63397;47.480;19.238;2023-03-01T15:06:29;1.57;;;0.70;;
74849;SDS011;63397;47.480;19.238;2023-03-01T15:09:32;1.58;;;0.50;;
74849;SDS011;63397;47.480;19.238;2023-03-01T15:12:37;1.58;;;0.70;;
74849;SDS011;63397;47.480;19.238;2023-03-01T15:15:44;2.75;;;0.95;;
74849;SDS011;63397;47.480;19.238;2023-03-01T15:18:49;1.83;;;0.80;;
74849;SDS011;63397;47.480;19.238;2023-03-01T15:21:52;2.03;;;0.90;;
74849;SDS011;63397;47.480;19.238;2023-03-01T15:24:54;2.22;;;0.68;;
74849;SDS011;63397;47.480;19.238;2023-03-01T15:27:57;3.40;;;1.00;;
74849;SDS011;63397;47.480;19.238;2023-03-01T15:31:04;2.55;;;0.82;;
74849;SDS011;63397;47.480;19.238;2023-03-01T15:34:09;2.05;;;0.80;;
74849;SDS011;63397;47.480;19.238;2023-03-01T15:40:32;4.80;;;0.95;;
74849;SDS011;63397;47.480;19.238;2023-03-01T15:46:40;4.43;;;1.42;;
74849;SDS011;63397;47.480;19.238;2023-03-01T15:49:47;2.35;;;0.73;;
74849;SDS011;63397;47.480;19.238;2023-03-01T15:52:57;4.03;;;1.00;;
74849;SDS011;63397;47.480;19.238;2023-03-01T15:56:00;3.25;;;1.30;;
74849;SDS011;63397;47.480;19.238;2023-03-01T15:59:02;2.72;;;1.00;;
74849;SDS011;63397;47.480;19.238;2023-03-01T16:02:08;3.45;;;1.20;;
74849;SDS011;63397;47.480;19.238;2023-03-01T16:05:24;2.45;;;0.82;;
74849;SDS011;63397;47.480;19.238;2023-03-01T16:08:26;7.47;;;1.13;;
74849;SDS011;63397;47.480;19.238;2023-03-01T16:11:29;3.50;;;1.05;;
74849;SDS011;63397;47.480;19.238;2023-03-01T16:14:31;3.53;;;1.20;;
74849;SDS011;63397;47.480;19.238;2023-03-01T16:17:33;2.30;;;0.90;;
74849;SDS011;63397;47.480;19.238;2023-03-01T16:20:36;3.05;;;1.20;;
74849;SDS011;63397;47.480;19.238;2023-03-01T16:23:39;5.90;;;1.10;;
74849;SDS011;63397;47.480;19.238;2023-03-01T16:26:41;3.30;;;1.27;;
74849;SDS011;63397;47.480;19.238;2023-03-01T16:29:44;5.53;;;1.58;;
74849;SDS011;63397;47.480;19.238;2023-03-01T16:32:47;4.22;;;1.42;;
74849;SDS011;63397;47.480;19.238;2023-03-01T16:35:49;3.78;;;1.38;;
74849;SDS011;63397;47.480;19.238;2023-03-01T16:38:52;4.90;;;1.73;;
74849;SDS011;63397;47.480;19.238;2023-03-01T16:41:56;3.88;;;1.33;;
74849;SDS011;63397;47.480;19.238;2023-03-01T16:45:01;2.78;;;1.20;;
74849;SDS011;63397;47.480;19.238;2023-03-01T16:48:12;4.72;;;1.67;;
74849;SDS011;63397;47.480;19.238;2023-03-01T16:51:14;5.82;;;2.33;;
74849;SDS011;63397;47.480;19.238;2023-03-01T16:54:17;5.00;;;1.80;;
74849;SDS011;63397;47.480;19.238;2023-03-01T16:57:19;6.43;;;2.70;;
74849;SDS011;63397;47.480;19.238;2023-03-01T17:00:26;3.60;;;1.50;;
74849;SDS011;63397;47.480;19.238;2023-03-01T17:03:28;5.15;;;2.00;;
74849;SDS011;63397;47.480;19.238;2023-03-01T17:06:31;3.13;;;1.35;;
74849;SDS011;63397;47.480;19.238;2023-03-01T17:09:37;4.37;;;2.00;;
74849;SDS011;63397;47.480;19.238;2023-03-01T17:12:39;6.13;;;2.50;;
74849;SDS011;63397;47.480;19.238;2023-03-01T17:15:42;6.45;;;1.70;;
74849;SDS011;63397;47.480;19.238;2023-03-01T17:18:44;4.15;;;1.65;;
74849;SDS011;63397;47.480;19.238;2023-03-01T17:21:47;4.53;;;1.90;;
74849;SDS011;63397;47.480;19.238;2023-03-01T17:24:49;3.97;;;1.67;;
74849;SDS011;63397;47.480;19.238;2023-03-01T17:27:51;6.65;;;1.98;;
74849;SDS011;63397;47.480;19.238;2023-03-01T17:30:54;5.80;;;2.50;;
74849;SDS011;63397;47.480;19.238;2023-03-01T17:33:56;4.30;;;1.80;;
74849;SDS011;63397;47.480;19.238;2023-03-01T17:37:02;7.55;;;2.67;;
74849;SDS011;63397;47.480;19.238;2023-03-01T17:40:04;4.63;;;1.83;;
74849;SDS011;63397;47.480;19.238;2023-03-01T17:43:07;5.40;;;2.65;;
74849;SDS011;63397;47.480;19.238;2023-03-01T17:46:10;5.60;;;2.33;;
74849;SDS011;63397;47.480;19.238;2023-03-01T17:49:12;6.47;;;2.00;;
74849;SDS011;63397;47.480;19.238;2023-03-01T17:52:14;5.55;;;2.25;;
74849;SDS011;63397;47.480;19.238;2023-03-01T17:55:17;5.83;;;2.30;;
74849;SDS011;63397;47.480;19.238;2023-03-01T17:58:19;6.57;;;2.80;;
74849;SDS011;63397;47.480;19.238;2023-03-01T18:01:24;5.63;;;2.25;;
74849;SDS011;63397;47.480;19.238;2023-03-01T18:04:26;5.45;;;2.25;;
74849;SDS011;63397;47.480;19.238;2023-03-01T18:07:29;3.72;;;1.83;;
74849;SDS011;63397;47.480;19.238;2023-03-01T18:10:32;4.27;;;2.07;;
74849;SDS011;63397;47.480;19.238;2023-03-01T18:13:35;5.13;;;1.92;;
74849;SDS011;63397;47.480;19.238;2023-03-01T18:16:37;6.35;;;2.42;;
74849;SDS011;63397;47.480;19.238;2023-03-01T18:19:40;8.23;;;2.88;;
74849;SDS011;63397;47.480;19.238;2023-03-01T18:22:44;5.38;;;2.50;;
74849;SDS011;63397;47.480;19.238;2023-03-01T18:25:46;11.40;;;4.47;;
74849;SDS011;63397;47.480;19.238;2023-03-01T18:28:49;7.38;;;4.35;;
74849;SDS011;63397;47.480;19.238;2023-03-01T18:31:52;9.02;;;3.53;;
74849;SDS011;63397;47.480;19.238;2023-03-01T18:34:55;12.00;;;4.93;;
74849;SDS011;63397;47.480;19.238;2023-03-01T18:37:57;8.40;;;3.90;;
74849;SDS011;63397;47.480;19.238;2023-03-01T18:41:00;9.03;;;4.00;;
74849;SDS011;63397;47.480;19.238;2023-03-01T18:44:03;5.35;;;2.72;;
74849;SDS011;63397;47.480;19.238;2023-03-01T18:47:06;12.43;;;4.03;;
74849;SDS011;63397;47.480;19.238;2023-03-01T18:50:08;9.82;;;4.55;;
74849;SDS011;63397;47.480;19.238;2023-03-01T18:53:11;9.40;;;3.97;;
74849;SDS011;63397;47.480;19.238;2023-03-01T18:56:13;8.93;;;4.10;;
74849;SDS011;63397;47.480;19.238;2023-03-01T18:59:16;16.90;;;4.60;;
74849;SDS011;63397;47.480;19.238;2023-03-01T19:02:20;7.35;;;3.13;;
74849;SDS011;63397;47.480;19.238;2023-03-01T19:05:22;11.15;;;4.97;;
74849;SDS011;63397;47.480;19.238;2023-03-01T19:08:25;10.65;;;4.03;;
74849;SDS011;63397;47.480;19.238;2023-03-01T19:11:28;10.17;;;3.77;;
74849;SDS011;63397;47.480;19.238;2023-03-01T19:14:32;13.13;;;4.25;;
74849;SDS011;63397;47.480;19.238;2023-03-01T19:17:34;11.27;;;5.38;;
74849;SDS011;63397;47.480;19.238;2023-03-01T19:20:37;8.35;;;4.60;;
74849;SDS011;63397;47.480;19.238;2023-03-01T19:23:41;11.95;;;7.22;;
74849;SDS011;63397;47.480;19.238;2023-03-01T19:26:43;16.10;;;5.03;;
74849;SDS011;63397;47.480;19.238;2023-03-01T19:29:46;6.72;;;3.38;;
74849;SDS011;63397;47.480;19.238;2023-03-01T19:32:48;11.70;;;3.90;;
74849;SDS011;63397;47.480;19.238;2023-03-01T19:35:53;9.43;;;4.13;;
74849;SDS011;63397;47.480;19.238;2023-03-01T19:38:58;13.93;;;4.63;;
74849;SDS011;63397;47.480;19.238;2023-03-01T19:42:01;10.30;;;5.13;;
74849;SDS011;63397;47.480;19.238;2023-03-01T19:45:03;6.45;;;3.40;;
74849;SDS011;63397;47.480;19.238;2023-03-01T19:48:06;8.30;;;4.10;;
74849;SDS011;63397;47.480;19.238;2023-03-01T19:51:09;13.30;;;4.05;;
74849;SDS011;63397;47.480;19.238;2023-03-01T19:54:13;8.30;;;3.30;;
74849;SDS011;63397;47.480;19.238;2023-03-01T19:57:20;5.20;;;2.33;;
74849;SDS011;63397;47.480;19.238;2023-03-01T20:00:23;10.68;;;3.83;;
74849;SDS011;63397;47.480;19.238;2023-03-01T20:06:27;10.05;;;3.85;;